sensor_id;sensor_type;location;lat;lon;timestamp;P1;durP1;ratioP1;P2;durP2;ratioP2
2546;SDS011;1283;47.982;7.834;2023-02-28T00:02:22;7.88;;;3.95;;
2546;SDS011;1283;47.982;7.834;2023-02-28T00:04:49;7.53;;;3.63;;
2546;SDS011;1283;47.982;7.834;2023-02-28T00:07:17;5.28;;;3.53;;
2546;SDS011;1283;47.982;7.834;2023-02-28T00:09:44;6.07;;;3.38;;
2546;SDS011;1283;47.982;7.834;2023-02-28T00:12:10;5.97;;;3.33;;
2546;SDS011;1283;47.982;7.834;2023-02-28T00:14:37;8.68;;;3.95;;
2546;SDS011;1283;47.982;7.834;2023-02-28T00:17:03;4.43;;;3.45;;
2546;SDS011;1283;47.982;7.834;2023-02-28T00:19:31;5.70;;;3.45;;
2546;SDS011;1283;47.982;7.834;2023-02-28T00:21:57;6.40;;;3.40;;
2546;SDS011;1283;47.982;7.834;2023-02-28T00:24:24;7.68;;;3.47;;
2546;SDS011;1283;47.982;7.834;2023-02-28T00:26:50;8.35;;;3.78;;
2546;SDS011;1283;47.982;7.834;2023-02-28T00:29:16;5.68;;;3.53;;
2546;SDS011;1283;47.982;7.834;2023-02-28T00:31:43;7.72;;;3.78;;
2546;SDS011;1283;47.982;7.834;2023-02-28T00:34:09;6.55;;;3.78;;
2546;SDS011;1283;47.982;7.834;2023-02-28T00:36:37;7.68;;;3.30;;
2546;SDS011;1283;47.982;7.834;2023-02-28T00:39:04;5.75;;;3.70;;
2546;SDS011;1283;47.982;7.834;2023-02-28T00:41:30;7.35;;;3.38;;
2546;SDS011;1283;47.982;7.834;2023-02-28T00:43:57;5.43;;;3.33;;
2546;SDS011;1283;47.982;7.834;2023-02-28T00:46:23;5.07;;;3.20;;
2546;SDS011;1283;47.982;7.834;2023-02-28T00:48:50;8.15;;;4.00;;
2546;SDS011;1283;47.982;7.834;2023-02-28T00:51:16;5.50;;;3.33;;
2546;SDS011;1283;47.982;7.834;2023-02-28T00:53:44;7.85;;;4.15;;
2546;SDS011;1283;47.982;7.834;2023-02-28T00:56:10;8.23;;;3.40;;
2546;SDS011;1283;47.982;7.834;2023-02-28T00:58:37;6.50;;;3.60;;
2546;SDS011;1283;47.982;7.834;2023-02-28T01:01:03;9.70;;;3.90;;
2546;SDS011;1283;47.982;7.834;2023-02-28T01:03:30;8.02;;;3.78;;
2546;SDS011;1283;47.982;7.834;2023-02-28T01:05:57;8.93;;;3.88;;
2546;SDS011;1283;47.982;7.834;2023-02-28T01:08:23;5.75;;;3.63;;
2546;SDS011;1283;47.982;7.834;2023-02-28T01:10:52;7.15;;;3.85;;
2546;SDS011;1283;47.982;7.834;2023-02-28T01:13:19;7.68;;;4.20;;
2546;SDS011;1283;47.982;7.834;2023-02-28T01:15:49;8.07;;;4.07;;
2546;SDS011;1283;47.982;7.834;2023-02-28T01:18:17;6.47;;;3.53;;
2546;SDS011;1283;47.982;7.834;2023-02-28T01:20:43;6.45;;;3.42;;
2546;SDS011;1283;47.982;7.834;2023-02-28T01:23:11;9.63;;;3.75;;
2546;SDS011;1283;47.982;7.834;2023-02-28T01:25:37;7.40;;;3.97;;
2546;SDS011;1283;47.982;7.834;2023-02-28T01:28:05;8.00;;;3.42;;
2546;SDS011;1283;47.982;7.834;2023-02-28T01:30:32;7.03;;;3.80;;
2546;SDS011;1283;47.982;7.834;2023-02-28T01:32:59;5.43;;;3.42;;
2546;SDS011;1283;47.982;7.834;2023-02-28T01:35:25;8.38;;;4.00;;
2546;SDS011;1283;47.982;7.834;2023-02-28T01:37:52;7.43;;;3.85;;
2546;SDS011;1283;47.982;7.834;2023-02-28T01:40:18;8.07;;;4.13;;
2546;SDS011;1283;47.982;7.834;2023-02-28T01:42:45;8.05;;;4.03;;
2546;SDS011;1283;47.982;7.834;2023-02-28T01:45:18;7.47;;;3.22;;
2546;SDS011;1283;47.982;7.834;2023-02-28T01:47:46;6.32;;;3.92;;
2546;SDS011;1283;47.982;7.834;2023-02-28T01:50:15;8.60;;;3.90;;
2546;SDS011;1283;47.982;7.834;2023-02-28T01:52:44;5.93;;;3.88;;
2546;SDS011;1283;47.982;7.834;2023-02-28T01:55:11;5.95;;;3.88;;
2546;SDS011;1283;47.982;7.834;2023-02-28T01:57:39;5.03;;;3.72;;
2546;SDS011;1283;47.982;7.834;2023-02-28T02:00:09;5.78;;;3.88;;
2546;SDS011;1283;47.982;7.834;2023-02-28T02:02:40;6.05;;;3.72;;
2546;SDS011;1283;47.982;7.834;2023-02-28T02:05:09;7.15;;;4.10;;
2546;SDS011;1283;47.982;7.834;2023-02-28T02:07:37;7.28;;;3.83;;
2546;SDS011;1283;47.982;7.834;2023-02-28T02:10:06;6.43;;;4.15;;
2546;SDS011;1283;47.982;7.834;2023-02-28T02:15:22;8.13;;;3.70;;
2546;SDS011;1283;47.982;7.834;2023-02-28T02:17:53;7.47;;;4.13;;
2546;SDS011;1283;47.982;7.834;2023-02-28T02:23:26;5.03;;;3.72;;
2546;SDS011;1283;47.982;7.834;2023-02-28T02:26:01;6.55;;;3.92;;
2546;SDS011;1283;47.982;7.834;2023-02-28T02:28:50;11.95;;;3.80;;
2546;SDS011;1283;47.982;7.834;2023-02-28T02:31:29;6.03;;;3.88;;
2546;SDS011;1283;47.982;7.834;2023-02-28T02:37:14;7.68;;;4.38;;
2546;SDS011;1283;47.982;7.834;2023-02-28T02:39:49;6.70;;;3.78;;
2546;SDS011;1283;47.982;7.834;2023-02-28T02:42:21;6.88;;;4.07;;
2546;SDS011;1283;47.982;7.834;2023-02-28T02:44:51;8.23;;;3.58;;
2546;SDS011;1283;47.982;7.834;2023-02-28T02:47:20;5.30;;;4.05;;
2546;SDS011;1283;47.982;7.834;2023-02-28T02:49:51;6.85;;;4.07;;
2546;SDS011;1283;47.982;7.834;2023-02-28T02:52:20;6.53;;;3.97;;
2546;SDS011;1283;47.982;7.834;2023-02-28T02:54:48;6.32;;;3.95;;
2546;SDS011;1283;47.982;7.834;2023-02-28T02:57:19;6.47;;;4.10;;
2546;SDS011;1283;47.982;7.834;2023-02-28T02:59:48;5.57;;;3.70;;
2546;SDS011;1283;47.982;7.834;2023-02-28T03:02:15;4.60;;;3.90;;
2546;SDS011;1283;47.982;7.834;2023-02-28T03:04:43;9.80;;;3.63;;
2546;SDS011;1283;47.982;7.834;2023-02-28T03:07:13;8.25;;;4.18;;
2546;SDS011;1283;47.982;7.834;2023-02-28T03:09:40;8.38;;;3.92;;
2546;SDS011;1283;47.982;7.834;2023-02-28T03:12:08;7.70;;;4.18;;
2546;SDS011;1283;47.982;7.834;2023-02-28T03:14:39;6.65;;;3.45;;
2546;SDS011;1283;47.982;7.834;2023-02-28T03:17:24;6.00;;;3.90;;
2546;SDS011;1283;47.982;7.834;2023-02-28T03:20:15;5.20;;;3.58;;
2546;SDS011;1283;47.982;7.834;2023-02-28T03:22:53;8.45;;;3.67;;
2546;SDS011;1283;47.982;7.834;2023-02-28T03:25:30;7.25;;;4.22;;
2546;SDS011;1283;47.982;7.834;2023-02-28T03:28:00;6.88;;;4.10;;
2546;SDS011;1283;47.982;7.834;2023-02-28T03:30:32;6.82;;;3.65;;
2546;SDS011;1283;47.982;7.834;2023-02-28T03:33:03;7.15;;;4.05;;
2546;SDS011;1283;47.982;7.834;2023-02-28T03:35:34;6.68;;;3.50;;
2546;SDS011;1283;47.982;7.834;2023-02-28T03:38:05;6.22;;;3.80;;
2546;SDS011;1283;47.982;7.834;2023-02-28T03:40:34;6.63;;;3.92;;
2546;SDS011;1283;47.982;7.834;2023-02-28T03:43:06;6.03;;;3.63;;
2546;SDS011;1283;47.982;7.834;2023-02-28T03:45:36;6.90;;;3.85;;
2546;SDS011;1283;47.982;7.834;2023-02-28T03:48:05;4.93;;;3.63;;
2546;SDS011;1283;47.982;7.834;2023-02-28T03:50:35;7.97;;;3.55;;
2546;SDS011;1283;47.982;7.834;2023-02-28T03:53:06;7.72;;;4.22;;
2546;SDS011;1283;47.982;7.834;2023-02-28T03:55:36;6.78;;;3.70;;
2546;SDS011;1283;47.982;7.834;2023-02-28T03:58:05;5.72;;;4.18;;
2546;SDS011;1283;47.982;7.834;2023-02-28T04:00:37;6.05;;;3.28;;
2546;SDS011;1283;47.982;7.834;2023-02-28T04:03:04;8.73;;;4.03;;
2546;SDS011;1283;47.982;7.834;2023-02-28T04:05:31;8.95;;;4.40;;
2546;SDS011;1283;47.982;7.834;2023-02-28T04:08:05;6.07;;;4.00;;
2546;SDS011;1283;47.982;7.834;2023-02-28T04:10:32;9.25;;;3.63;;
2546;SDS011;1283;47.982;7.834;2023-02-28T04:12:58;6.18;;;3.78;;
2546;SDS011;1283;47.982;7.834;2023-02-28T04:15:25;6.53;;;3.60;;
2546;SDS011;1283;47.982;7.834;2023-02-28T04:17:52;6.57;;;3.40;;
2546;SDS011;1283;47.982;7.834;2023-02-28T04:20:18;8.05;;;3.65;;
2546;SDS011;1283;47.982;7.834;2023-02-28T04:22:45;7.97;;;4.28;;
2546;SDS011;1283;47.982;7.834;2023-02-28T04:25:15;8.63;;;3.92;;
2546;SDS011;1283;47.982;7.834;2023-02-28T04:27:41;6.10;;;3.78;;
2546;SDS011;1283;47.982;7.834;2023-02-28T04:30:10;5.05;;;3.85;;
2546;SDS011;1283;47.982;7.834;2023-02-28T04:32:37;7.07;;;4.50;;
2546;SDS011;1283;47.982;7.834;2023-02-28T04:35:03;7.43;;;4.03;;
2546;SDS011;1283;47.982;7.834;2023-02-28T04:37:30;6.43;;;4.05;;
2546;SDS011;1283;47.982;7.834;2023-02-28T04:39:59;7.60;;;4.32;;
2546;SDS011;1283;47.982;7.834;2023-02-28T04:42:27;6.60;;;4.50;;
2546;SDS011;1283;47.982;7.834;2023-02-28T04:45:00;8.75;;;4.68;;
2546;SDS011;1283;47.982;7.834;2023-02-28T04:47:26;6.72;;;4.40;;
2546;SDS011;1283;47.982;7.834;2023-02-28T04:49:53;8.02;;;4.53;;
2546;SDS011;1283;47.982;7.834;2023-02-28T04:52:19;7.15;;;4.82;;
2546;SDS011;1283;47.982;7.834;2023-02-28T04:54:45;9.25;;;4.25;;
2546;SDS011;1283;47.982;7.834;2023-02-28T04:57:12;8.32;;;4.72;;
2546;SDS011;1283;47.982;7.834;2023-02-28T04:59:40;7.18;;;4.35;;
2546;SDS011;1283;47.982;7.834;2023-02-28T05:02:07;8.20;;;4.57;;
2546;SDS011;1283;47.982;7.834;2023-02-28T05:04:33;9.30;;;4.90;;
2546;SDS011;1283;47.982;7.834;2023-02-28T05:07:00;7.90;;;4.78;;
2546;SDS011;1283;47.982;7.834;2023-02-28T05:09:26;8.10;;;4.28;;
2546;SDS011;1283;47.982;7.834;2023-02-28T05:11:53;9.45;;;4.80;;
2546;SDS011;1283;47.982;7.834;2023-02-28T05:14:20;6.28;;;4.32;;
2546;SDS011;1283;47.982;7.834;2023-02-28T05:16:48;9.23;;;5.25;;
2546;SDS011;1283;47.982;7.834;2023-02-28T05:19:14;7.22;;;4.45;;
2546;SDS011;1283;47.982;7.834;2023-02-28T05:21:41;6.53;;;4.32;;
2546;SDS011;1283;47.982;7.834;2023-02-28T05:24:15;7.85;;;4.72;;
2546;SDS011;1283;47.982;7.834;2023-02-28T05:26:48;9.00;;;4.97;;
2546;SDS011;1283;47.982;7.834;2023-02-28T05:29:16;9.30;;;4.93;;
2546;SDS011;1283;47.982;7.834;2023-02-28T05:31:43;10.65;;;5.05;;
2546;SDS011;1283;47.982;7.834;2023-02-28T05:34:11;9.38;;;4.68;;
2546;SDS011;1283;47.982;7.834;2023-02-28T05:36:37;8.40;;;4.88;;
2546;SDS011;1283;47.982;7.834;2023-02-28T05:39:04;10.07;;;5.03;;
2546;SDS011;1283;47.982;7.834;2023-02-28T05:41:32;7.82;;;5.15;;
2546;SDS011;1283;47.982;7.834;2023-02-28T05:43:58;7.80;;;4.40;;
2546;SDS011;1283;47.982;7.834;2023-02-28T05:46:25;9.02;;;5.05;;
2546;SDS011;1283;47.982;7.834;2023-02-28T05:48:52;10.25;;;4.97;;
2546;SDS011;1283;47.982;7.834;2023-02-28T05:51:19;10.63;;;5.03;;
2546;SDS011;1283;47.982;7.834;2023-02-28T05:53:46;9.20;;;5.20;;
2546;SDS011;1283;47.982;7.834;2023-02-28T05:56:13;10.38;;;6.30;;
2546;SDS011;1283;47.982;7.834;2023-02-28T05:58:39;9.98;;;5.97;;
2546;SDS011;1283;47.982;7.834;2023-02-28T06:01:22;10.93;;;5.90;;
2546;SDS011;1283;47.982;7.834;2023-02-28T06:03:50;16.80;;;5.35;;
2546;SDS011;1283;47.982;7.834;2023-02-28T06:06:17;10.27;;;5.65;;
2546;SDS011;1283;47.982;7.834;2023-02-28T06:08:45;12.43;;;6.03;;
2546;SDS011;1283;47.982;7.834;2023-02-28T06:11:11;11.00;;;5.28;;
2546;SDS011;1283;47.982;7.834;2023-02-28T06:13:38;11.68;;;6.05;;
2546;SDS011;1283;47.982;7.834;2023-02-28T06:16:05;8.93;;;5.20;;
2546;SDS011;1283;47.982;7.834;2023-02-28T06:18:32;10.98;;;5.97;;
2546;SDS011;1283;47.982;7.834;2023-02-28T06:20:58;10.07;;;6.30;;
2546;SDS011;1283;47.982;7.834;2023-02-28T06:23:25;9.65;;;6.00;;
2546;SDS011;1283;47.982;7.834;2023-02-28T06:25:53;9.77;;;5.72;;
2546;SDS011;1283;47.982;7.834;2023-02-28T06:28:23;11.82;;;5.75;;
2546;SDS011;1283;47.982;7.834;2023-02-28T06:30:49;9.00;;;5.60;;
2546;SDS011;1283;47.982;7.834;2023-02-28T06:33:16;9.75;;;6.47;;
2546;SDS011;1283;47.982;7.834;2023-02-28T06:35:43;10.05;;;5.90;;
2546;SDS011;1283;47.982;7.834;2023-02-28T06:38:10;11.20;;;6.00;;
2546;SDS011;1283;47.982;7.834;2023-02-28T06:40:36;11.05;;;5.85;;
2546;SDS011;1283;47.982;7.834;2023-02-28T06:43:07;12.90;;;6.10;;
2546;SDS011;1283;47.982;7.834;2023-02-28T06:45:33;8.77;;;5.63;;
2546;SDS011;1283;47.982;7.834;2023-02-28T06:47:59;10.75;;;6.25;;
2546;SDS011;1283;47.982;7.834;2023-02-28T06:50:26;8.50;;;6.07;;
2546;SDS011;1283;47.982;7.834;2023-02-28T06:52:54;11.13;;;6.78;;
2546;SDS011;1283;47.982;7.834;2023-02-28T06:55:21;14.48;;;6.97;;
2546;SDS011;1283;47.982;7.834;2023-02-28T06:57:47;10.43;;;6.53;;
2546;SDS011;1283;47.982;7.834;2023-02-28T07:00:17;9.63;;;6.15;;
2546;SDS011;1283;47.982;7.834;2023-02-28T07:02:43;11.15;;;6.90;;
2546;SDS011;1283;47.982;7.834;2023-02-28T07:05:11;13.98;;;7.05;;
2546;SDS011;1283;47.982;7.834;2023-02-28T07:07:37;13.43;;;6.72;;
2546;SDS011;1283;47.982;7.834;2023-02-28T07:10:08;12.80;;;6.20;;
2546;SDS011;1283;47.982;7.834;2023-02-28T07:12:36;9.98;;;6.28;;
2546;SDS011;1283;47.982;7.834;2023-02-28T07:15:02;11.90;;;6.75;;
2546;SDS011;1283;47.982;7.834;2023-02-28T07:17:31;11.80;;;6.63;;
2546;SDS011;1283;47.982;7.834;2023-02-28T07:19:58;12.10;;;6.85;;
2546;SDS011;1283;47.982;7.834;2023-02-28T07:22:24;10.52;;;6.50;;
2546;SDS011;1283;47.982;7.834;2023-02-28T07:24:50;13.30;;;6.95;;
2546;SDS011;1283;47.982;7.834;2023-02-28T07:27:17;12.38;;;6.45;;
2546;SDS011;1283;47.982;7.834;2023-02-28T07:29:50;12.77;;;6.68;;
2546;SDS011;1283;47.982;7.834;2023-02-28T07:32:17;14.35;;;7.25;;
2546;SDS011;1283;47.982;7.834;2023-02-28T07:34:45;11.10;;;6.03;;
2546;SDS011;1283;47.982;7.834;2023-02-28T07:37:12;9.95;;;5.88;;
2546;SDS011;1283;47.982;7.834;2023-02-28T07:39:39;15.52;;;6.18;;
2546;SDS011;1283;47.982;7.834;2023-02-28T07:42:07;14.23;;;6.88;;
2546;SDS011;1283;47.982;7.834;2023-02-28T07:44:35;15.35;;;6.50;;
2546;SDS011;1283;47.982;7.834;2023-02-28T07:47:05;9.93;;;6.53;;
2546;SDS011;1283;47.982;7.834;2023-02-28T07:49:32;13.55;;;6.38;;
2546;SDS011;1283;47.982;7.834;2023-02-28T07:51:59;13.13;;;6.03;;
2546;SDS011;1283;47.982;7.834;2023-02-28T07:54:27;10.75;;;5.97;;
2546;SDS011;1283;47.982;7.834;2023-02-28T07:56:54;12.05;;;6.60;;
2546;SDS011;1283;47.982;7.834;2023-02-28T07:59:21;11.40;;;6.05;;
2546;SDS011;1283;47.982;7.834;2023-02-28T08:01:47;10.30;;;5.88;;
2546;SDS011;1283;47.982;7.834;2023-02-28T08:04:15;13.13;;;6.00;;
2546;SDS011;1283;47.982;7.834;2023-02-28T08:06:41;12.48;;;6.20;;
2546;SDS011;1283;47.982;7.834;2023-02-28T08:09:09;8.20;;;5.65;;
2546;SDS011;1283;47.982;7.834;2023-02-28T08:11:36;10.13;;;5.60;;
2546;SDS011;1283;47.982;7.834;2023-02-28T08:14:03;10.50;;;5.30;;
2546;SDS011;1283;47.982;7.834;2023-02-28T08:16:29;8.43;;;5.57;;
2546;SDS011;1283;47.982;7.834;2023-02-28T08:18:55;7.32;;;5.30;;
2546;SDS011;1283;47.982;7.834;2023-02-28T08:21:22;12.48;;;6.00;;
2546;SDS011;1283;47.982;7.834;2023-02-28T08:23:49;10.70;;;6.13;;
2546;SDS011;1283;47.982;7.834;2023-02-28T08:26:18;8.68;;;5.38;;
2546;SDS011;1283;47.982;7.834;2023-02-28T08:28:45;12.40;;;5.53;;
2546;SDS011;1283;47.982;7.834;2023-02-28T08:31:12;10.27;;;5.70;;
2546;SDS011;1283;47.982;7.834;2023-02-28T08:33:39;10.32;;;5.75;;
2546;SDS011;1283;47.982;7.834;2023-02-28T08:36:08;10.55;;;5.85;;
2546;SDS011;1283;47.982;7.834;2023-02-28T08:38:35;8.55;;;5.50;;
2546;SDS011;1283;47.982;7.834;2023-02-28T08:41:02;10.07;;;5.40;;
2546;SDS011;1283;47.982;7.834;2023-02-28T08:43:33;9.57;;;6.05;;
2546;SDS011;1283;47.982;7.834;2023-02-28T08:46:00;11.70;;;6.60;;
2546;SDS011;1283;47.982;7.834;2023-02-28T08:48:27;8.82;;;5.47;;
2546;SDS011;1283;47.982;7.834;2023-02-28T08:50:55;17.42;;;6.35;;
2546;SDS011;1283;47.982;7.834;2023-02-28T08:53:22;9.85;;;6.03;;
2546;SDS011;1283;47.982;7.834;2023-02-28T08:55:55;9.57;;;6.07;;
2546;SDS011;1283;47.982;7.834;2023-02-28T08:58:23;13.00;;;7.28;;
2546;SDS011;1283;47.982;7.834;2023-02-28T09:00:51;12.30;;;6.35;;
2546;SDS011;1283;47.982;7.834;2023-02-28T09:03:18;13.40;;;6.57;;
2546;SDS011;1283;47.982;7.834;2023-02-28T09:05:51;13.52;;;6.93;;
2546;SDS011;1283;47.982;7.834;2023-02-28T09:08:18;10.52;;;6.55;;
2546;SDS011;1283;47.982;7.834;2023-02-28T09:10:45;11.10;;;6.40;;
2546;SDS011;1283;47.982;7.834;2023-02-28T09:13:12;9.57;;;5.50;;
2546;SDS011;1283;47.982;7.834;2023-02-28T09:15:38;12.23;;;7.07;;
2546;SDS011;1283;47.982;7.834;2023-02-28T09:18:06;15.38;;;8.68;;
2546;SDS011;1283;47.982;7.834;2023-02-28T09:20:33;10.90;;;6.45;;
2546;SDS011;1283;47.982;7.834;2023-02-28T09:22:59;12.48;;;6.60;;
2546;SDS011;1283;47.982;7.834;2023-02-28T09:25:25;11.60;;;6.90;;
2546;SDS011;1283;47.982;7.834;2023-02-28T09:27:52;9.55;;;6.03;;
2546;SDS011;1283;47.982;7.834;2023-02-28T09:30:18;16.23;;;7.03;;
2546;SDS011;1283;47.982;7.834;2023-02-28T09:32:45;9.63;;;6.18;;
2546;SDS011;1283;47.982;7.834;2023-02-28T09:35:18;11.10;;;6.75;;
2546;SDS011;1283;47.982;7.834;2023-02-28T09:37:46;11.02;;;6.10;;
2546;SDS011;1283;47.982;7.834;2023-02-28T09:40:12;10.65;;;6.25;;
2546;SDS011;1283;47.982;7.834;2023-02-28T09:42:42;15.55;;;6.90;;
2546;SDS011;1283;47.982;7.834;2023-02-28T09:45:11;10.10;;;6.20;;
2546;SDS011;1283;47.982;7.834;2023-02-28T09:47:43;11.63;;;6.63;;
2546;SDS011;1283;47.982;7.834;2023-02-28T09:50:14;9.90;;;5.93;;
2546;SDS011;1283;47.982;7.834;2023-02-28T09:52:46;10.57;;;6.13;;
2546;SDS011;1283;47.982;7.834;2023-02-28T09:55:18;11.30;;;6.55;;
2546;SDS011;1283;47.982;7.834;2023-02-28T09:57:47;11.68;;;6.78;;
2546;SDS011;1283;47.982;7.834;2023-02-28T10:00:17;12.48;;;7.18;;
2546;SDS011;1283;47.982;7.834;2023-02-28T10:02:53;13.35;;;6.95;;
2546;SDS011;1283;47.982;7.834;2023-02-28T10:05:26;10.85;;;6.25;;
2546;SDS011;1283;47.982;7.834;2023-02-28T10:07:58;11.65;;;5.95;;
2546;SDS011;1283;47.982;7.834;2023-02-28T10:10:31;12.32;;;6.53;;
2546;SDS011;1283;47.982;7.834;2023-02-28T10:13:01;10.93;;;6.60;;
2546;SDS011;1283;47.982;7.834;2023-02-28T10:15:30;10.27;;;6.28;;
2546;SDS011;1283;47.982;7.834;2023-02-28T10:17:58;11.93;;;6.40;;
2546;SDS011;1283;47.982;7.834;2023-02-28T10:20:28;12.00;;;6.57;;
2546;SDS011;1283;47.982;7.834;2023-02-28T10:23:00;11.38;;;6.68;;
2546;SDS011;1283;47.982;7.834;2023-02-28T10:25:32;10.80;;;6.55;;
2546;SDS011;1283;47.982;7.834;2023-02-28T10:28:00;10.43;;;6.80;;
2546;SDS011;1283;47.982;7.834;2023-02-28T10:30:32;10.52;;;6.00;;
2546;SDS011;1283;47.982;7.834;2023-02-28T10:32:58;13.35;;;6.85;;
2546;SDS011;1283;47.982;7.834;2023-02-28T10:35:25;10.98;;;6.32;;
2546;SDS011;1283;47.982;7.834;2023-02-28T10:37:55;11.07;;;5.97;;
2546;SDS011;1283;47.982;7.834;2023-02-28T10:40:26;10.77;;;6.15;;
2546;SDS011;1283;47.982;7.834;2023-02-28T10:42:56;11.75;;;6.63;;
2546;SDS011;1283;47.982;7.834;2023-02-28T10:45:23;12.35;;;6.82;;
2546;SDS011;1283;47.982;7.834;2023-02-28T10:47:51;12.52;;;6.38;;
2546;SDS011;1283;47.982;7.834;2023-02-28T10:50:27;12.68;;;6.95;;
2546;SDS011;1283;47.982;7.834;2023-02-28T10:53:28;10.98;;;6.90;;
2546;SDS011;1283;47.982;7.834;2023-02-28T10:55:57;12.95;;;7.00;;
2546;SDS011;1283;47.982;7.834;2023-02-28T10:58:27;11.35;;;6.50;;
2546;SDS011;1283;47.982;7.834;2023-02-28T11:00:55;10.98;;;6.25;;
2546;SDS011;1283;47.982;7.834;2023-02-28T11:03:23;11.55;;;6.85;;
2546;SDS011;1283;47.982;7.834;2023-02-28T11:05:50;10.30;;;6.00;;
2546;SDS011;1283;47.982;7.834;2023-02-28T11:08:17;13.57;;;6.55;;
2546;SDS011;1283;47.982;7.834;2023-02-28T11:10:46;9.80;;;5.95;;
2546;SDS011;1283;47.982;7.834;2023-02-28T11:13:16;12.05;;;6.70;;
2546;SDS011;1283;47.982;7.834;2023-02-28T11:15:48;14.23;;;6.38;;
2546;SDS011;1283;47.982;7.834;2023-02-28T11:18:21;11.07;;;6.55;;
2546;SDS011;1283;47.982;7.834;2023-02-28T11:20:49;10.48;;;6.18;;
2546;SDS011;1283;47.982;7.834;2023-02-28T11:23:17;13.27;;;7.40;;
2546;SDS011;1283;47.982;7.834;2023-02-28T11:25:48;12.55;;;7.20;;
2546;SDS011;1283;47.982;7.834;2023-02-28T11:28:26;14.18;;;7.05;;
2546;SDS011;1283;47.982;7.834;2023-02-28T11:31:01;13.57;;;7.28;;
2546;SDS011;1283;47.982;7.834;2023-02-28T11:33:31;9.57;;;6.07;;
2546;SDS011;1283;47.982;7.834;2023-02-28T11:36:00;13.63;;;7.22;;
2546;SDS011;1283;47.982;7.834;2023-02-28T11:38:27;12.77;;;7.00;;
2546;SDS011;1283;47.982;7.834;2023-02-28T11:41:00;12.88;;;7.75;;
2546;SDS011;1283;47.982;7.834;2023-02-28T11:43:38;10.85;;;6.78;;
2546;SDS011;1283;47.982;7.834;2023-02-28T11:46:17;12.02;;;7.65;;
2546;SDS011;1283;47.982;7.834;2023-02-28T11:48:51;12.05;;;6.97;;
2546;SDS011;1283;47.982;7.834;2023-02-28T11:51:23;13.18;;;7.53;;
2546;SDS011;1283;47.982;7.834;2023-02-28T11:53:58;12.13;;;6.35;;
2546;SDS011;1283;47.982;7.834;2023-02-28T11:56:36;11.98;;;6.72;;
2546;SDS011;1283;47.982;7.834;2023-02-28T11:59:10;14.48;;;7.05;;
2546;SDS011;1283;47.982;7.834;2023-02-28T12:01:58;11.38;;;6.60;;
2546;SDS011;1283;47.982;7.834;2023-02-28T12:04:36;16.90;;;8.15;;
2546;SDS011;1283;47.982;7.834;2023-02-28T12:07:13;18.30;;;6.95;;
2546;SDS011;1283;47.982;7.834;2023-02-28T12:09:44;11.27;;;6.82;;
2546;SDS011;1283;47.982;7.834;2023-02-28T12:12:21;14.73;;;8.10;;
2546;SDS011;1283;47.982;7.834;2023-02-28T12:17:46;13.73;;;7.18;;
2546;SDS011;1283;47.982;7.834;2023-02-28T12:20:30;16.63;;;7.15;;
2546;SDS011;1283;47.982;7.834;2023-02-28T12:23:04;12.23;;;6.78;;
2546;SDS011;1283;47.982;7.834;2023-02-28T12:25:44;12.68;;;7.70;;
2546;SDS011;1283;47.982;7.834;2023-02-28T12:28:18;12.80;;;7.40;;
2546;SDS011;1283;47.982;7.834;2023-02-28T12:30:49;11.98;;;7.28;;
2546;SDS011;1283;47.982;7.834;2023-02-28T12:33:20;11.73;;;7.05;;
2546;SDS011;1283;47.982;7.834;2023-02-28T12:35:49;15.05;;;7.03;;
2546;SDS011;1283;47.982;7.834;2023-02-28T12:38:21;12.88;;;7.15;;
2546;SDS011;1283;47.982;7.834;2023-02-28T12:40:50;12.70;;;7.45;;
2546;SDS011;1283;47.982;7.834;2023-02-28T12:43:22;14.07;;;7.35;;
2546;SDS011;1283;47.982;7.834;2023-02-28T12:45:53;15.25;;;7.72;;
2546;SDS011;1283;47.982;7.834;2023-02-28T12:48:26;13.27;;;7.38;;
2546;SDS011;1283;47.982;7.834;2023-02-28T12:50:55;14.73;;;7.55;;
2546;SDS011;1283;47.982;7.834;2023-02-28T12:53:23;13.27;;;7.15;;
2546;SDS011;1283;47.982;7.834;2023-02-28T12:55:56;13.18;;;7.47;;
2546;SDS011;1283;47.982;7.834;2023-02-28T12:58:31;14.88;;;7.78;;
2546;SDS011;1283;47.982;7.834;2023-02-28T13:06:57;15.50;;;7.60;;
2546;SDS011;1283;47.982;7.834;2023-02-28T13:09:31;11.20;;;7.43;;
2546;SDS011;1283;47.982;7.834;2023-02-28T13:11:57;17.20;;;8.05;;
2546;SDS011;1283;47.982;7.834;2023-02-28T13:14:27;12.98;;;7.25;;
2546;SDS011;1283;47.982;7.834;2023-02-28T13:16:57;12.95;;;7.43;;
2546;SDS011;1283;47.982;7.834;2023-02-28T13:19:26;12.80;;;7.80;;
2546;SDS011;1283;47.982;7.834;2023-02-28T13:21:54;15.27;;;8.70;;
2546;SDS011;1283;47.982;7.834;2023-02-28T13:27:17;13.43;;;7.60;;
2546;SDS011;1283;47.982;7.834;2023-02-28T13:30:01;13.18;;;7.97;;
2546;SDS011;1283;47.982;7.834;2023-02-28T13:35:48;12.50;;;7.70;;
2546;SDS011;1283;47.982;7.834;2023-02-28T13:38:16;16.45;;;8.57;;
2546;SDS011;1283;47.982;7.834;2023-02-28T13:40:47;12.82;;;7.75;;
2546;SDS011;1283;47.982;7.834;2023-02-28T13:43:16;16.05;;;7.93;;
2546;SDS011;1283;47.982;7.834;2023-02-28T13:48:37;12.88;;;7.53;;
2546;SDS011;1283;47.982;7.834;2023-02-28T13:53:56;14.85;;;7.78;;
2546;SDS011;1283;47.982;7.834;2023-02-28T13:56:32;12.90;;;7.70;;
2546;SDS011;1283;47.982;7.834;2023-02-28T13:59:03;13.50;;;7.88;;
2546;SDS011;1283;47.982;7.834;2023-02-28T14:01:40;11.57;;;7.60;;
2546;SDS011;1283;47.982;7.834;2023-02-28T14:07:20;14.77;;;8.13;;
2546;SDS011;1283;47.982;7.834;2023-02-28T14:09:51;13.40;;;8.18;;
2546;SDS011;1283;47.982;7.834;2023-02-28T14:15:28;16.80;;;8.23;;
2546;SDS011;1283;47.982;7.834;2023-02-28T14:18:01;13.18;;;7.68;;
2546;SDS011;1283;47.982;7.834;2023-02-28T14:20:30;14.25;;;7.88;;
2546;SDS011;1283;47.982;7.834;2023-02-28T14:23:02;12.45;;;7.63;;
2546;SDS011;1283;47.982;7.834;2023-02-28T14:25:33;15.10;;;8.48;;
2546;SDS011;1283;47.982;7.834;2023-02-28T14:28:09;15.60;;;8.38;;
2546;SDS011;1283;47.982;7.834;2023-02-28T14:30:48;13.75;;;8.02;;
2546;SDS011;1283;47.982;7.834;2023-02-28T14:33:22;14.20;;;9.00;;
2546;SDS011;1283;47.982;7.834;2023-02-28T14:35:56;13.95;;;8.30;;
2546;SDS011;1283;47.982;7.834;2023-02-28T14:38:33;14.45;;;8.35;;
2546;SDS011;1283;47.982;7.834;2023-02-28T14:41:03;13.75;;;8.43;;
2546;SDS011;1283;47.982;7.834;2023-02-28T14:43:32;15.07;;;8.70;;
2546;SDS011;1283;47.982;7.834;2023-02-28T14:45:59;14.73;;;8.60;;
2546;SDS011;1283;47.982;7.834;2023-02-28T14:48:26;15.75;;;9.30;;
2546;SDS011;1283;47.982;7.834;2023-02-28T14:50:54;15.18;;;8.52;;
2546;SDS011;1283;47.982;7.834;2023-02-28T14:53:23;15.75;;;8.25;;
2546;SDS011;1283;47.982;7.834;2023-02-28T14:55:54;14.02;;;8.40;;
2546;SDS011;1283;47.982;7.834;2023-02-28T14:58:22;14.88;;;8.98;;
2546;SDS011;1283;47.982;7.834;2023-02-28T15:00:51;15.90;;;9.25;;
2546;SDS011;1283;47.982;7.834;2023-02-28T15:03:20;15.73;;;8.13;;
2546;SDS011;1283;47.982;7.834;2023-02-28T15:05:51;15.77;;;9.10;;
2546;SDS011;1283;47.982;7.834;2023-02-28T15:08:18;18.98;;;9.65;;
2546;SDS011;1283;47.982;7.834;2023-02-28T15:10:49;16.05;;;9.10;;
2546;SDS011;1283;47.982;7.834;2023-02-28T15:13:19;15.93;;;9.18;;
2546;SDS011;1283;47.982;7.834;2023-02-28T15:15:47;14.52;;;8.90;;
2546;SDS011;1283;47.982;7.834;2023-02-28T15:18:22;21.40;;;9.68;;
2546;SDS011;1283;47.982;7.834;2023-02-28T15:20:52;16.00;;;8.52;;
2546;SDS011;1283;47.982;7.834;2023-02-28T15:23:19;15.93;;;9.32;;
2546;SDS011;1283;47.982;7.834;2023-02-28T15:25:46;15.65;;;8.65;;
2546;SDS011;1283;47.982;7.834;2023-02-28T15:28:14;15.25;;;8.98;;
2546;SDS011;1283;47.982;7.834;2023-02-28T15:30:51;17.20;;;9.43;;
2546;SDS011;1283;47.982;7.834;2023-02-28T15:33:23;16.13;;;9.18;;
2546;SDS011;1283;47.982;7.834;2023-02-28T15:35:51;17.73;;;9.13;;
2546;SDS011;1283;47.982;7.834;2023-02-28T15:38:21;14.80;;;8.73;;
2546;SDS011;1283;47.982;7.834;2023-02-28T15:40:50;18.13;;;9.80;;
2546;SDS011;1283;47.982;7.834;2023-02-28T15:43:23;17.73;;;9.57;;
2546;SDS011;1283;47.982;7.834;2023-02-28T15:45:52;16.23;;;9.13;;
2546;SDS011;1283;47.982;7.834;2023-02-28T15:48:21;20.70;;;9.60;;
2546;SDS011;1283;47.982;7.834;2023-02-28T15:50:50;16.02;;;9.23;;
2546;SDS011;1283;47.982;7.834;2023-02-28T15:53:19;15.25;;;8.73;;
2546;SDS011;1283;47.982;7.834;2023-02-28T15:55:52;19.20;;;9.98;;
2546;SDS011;1283;47.982;7.834;2023-02-28T15:58:23;18.83;;;9.63;;